Time;durP1;ratioP1;P1;durP2;ratioP2;P2;SDS_P1;SDS_P2;PMS_P1;PMS_P2;Temp;Humidity;BMP_temperature;BMP_pressure;BME280_temperature;BME280_humidity;BME280_pressure;Samples;Min_cycle;Max_cycle;Signal;HPM_P1;HPM_P2
2021/11/11 00:02:16;;;;;;;30.85;20.05;;;5.60;99.90;;;;;;5021189;28;20263;-81
2021/11/11 00:04:44;;;;;;;46.40;31.48;;;5.60;99.90;;;;;;5021200;28;20200;-82
2021/11/11 00:07:11;;;;;;;36.33;21.58;;;5.40;99.90;;;;;;5020896;28;20201;-82
2021/11/11 00:09:39;;;;;;;32.95;21.48;;;5.50;99.90;;;;;;5014831;28;20213;-83
2021/11/11 00:12:07;;;;;;;32.58;20.58;;;5.60;99.90;;;;;;5019168;28;20226;-81
2021/11/11 00:14:34;;;;;;;38.92;24.17;;;5.70;99.90;;;;;;5003924;28;20474;-81
2021/11/11 00:17:01;;;;;;;33.97;21.88;;;5.70;99.90;;;;;;5020922;28;20208;-81
2021/11/11 00:19:29;;;;;;;40.33;22.70;;;5.50;99.90;;;;;;5020917;28;20230;-82
2021/11/11 00:21:56;;;;;;;37.20;24.67;;;5.60;99.90;;;;;;5020823;28;20210;-82
2021/11/11 00:24:23;;;;;;;36.38;21.95;;;5.60;99.90;;;;;;5013892;28;20207;-82
2021/11/11 00:26:51;;;;;;;35.88;21.65;;;5.50;99.90;;;;;;5000504;28;20208;-82
2021/11/11 00:29:18;;;;;;;31.02;22.30;;;5.60;99.90;;;;;;5020709;28;20249;-82
2021/11/11 00:31:46;;;;;;;26.63;20.10;;;5.60;99.90;;;;;;5017875;28;20245;-83
2021/11/11 00:34:13;;;;;;;34.30;21.13;;;5.50;99.90;;;;;;5024694;28;20202;-82
2021/11/11 00:36:40;;;;;;;30.67;19.58;;;5.60;99.90;;;;;;5007931;28;20245;-80
2021/11/11 00:39:07;;;;;;;22.42;17.33;;;5.60;99.90;;;;;;5007440;28;20445;-81
2021/11/11 00:41:35;;;;;;;32.88;17.60;;;5.60;99.90;;;;;;5021454;28;20228;-81
2021/11/11 00:44:02;;;;;;;25.88;18.80;;;5.50;99.90;;;;;;5025352;28;20204;-80
2021/11/11 00:46:29;;;;;;;27.55;17.92;;;5.50;99.90;;;;;;5024947;28;20207;-81
2021/11/11 00:48:56;;;;;;;27.27;18.23;;;5.50;99.90;;;;;;5024698;28;20208;-80
2021/11/11 00:51:23;;;;;;;28.50;19.02;;;5.50;99.90;;;;;;5025121;28;20231;-81
2021/11/11 00:53:51;;;;;;;20.85;15.55;;;5.50;99.90;;;;;;5025378;28;20426;-81
2021/11/11 00:56:18;;;;;;;26.05;17.35;;;5.40;99.90;;;;;;5025141;28;20267;-81
2021/11/11 00:58:45;;;;;;;24.63;16.80;;;5.30;99.90;;;;;;4998809;28;20311;-82
2021/11/11 01:01:13;;;;;;;24.50;17.25;;;5.30;99.90;;;;;;5024451;28;20247;-81
2021/11/11 01:03:40;;;;;;;29.63;19.52;;;5.40;99.90;;;;;;5024260;28;20198;-80
2021/11/11 01:06:08;;;;;;;21.70;15.23;;;5.40;99.90;;;;;;5007451;28;20211;-80
2021/11/11 01:08:36;;;;;;;28.30;19.25;;;5.40;99.90;;;;;;5024376;28;20210;-81
2021/11/11 01:11:05;;;;;;;29.10;19.55;;;5.40;99.90;;;;;;5024231;28;20226;-81
2021/11/11 01:13:34;;;;;;;30.17;21.55;;;5.40;99.90;;;;;;5024248;28;20211;-82
2021/11/11 01:16:02;;;;;;;27.35;17.40;;;5.30;99.90;;;;;;5025002;28;20207;-80
2021/11/11 01:18:30;;;;;;;26.08;17.85;;;5.30;99.90;;;;;;5024414;28;20203;-81
2021/11/11 01:20:58;;;;;;;27.67;19.67;;;5.30;99.90;;;;;;5024834;28;20200;-81
2021/11/11 01:23:25;;;;;;;30.05;16.40;;;5.40;99.90;;;;;;5024832;28;20489;-81
2021/11/11 01:25:53;;;;;;;24.58;16.63;;;5.30;99.90;;;;;;5024209;28;20197;-81
2021/11/11 01:28:21;;;;;;;33.20;19.52;;;5.30;99.90;;;;;;5016454;28;20198;-81
2021/11/11 01:30:48;;;;;;;30.45;18.88;;;5.30;99.90;;;;;;5024168;28;20250;-82
2021/11/11 01:33:16;;;;;;;33.38;23.75;;;5.30;99.90;;;;;;5017032;28;20195;-82
2021/11/11 01:35:44;;;;;;;31.45;19.77;;;5.20;99.90;;;;;;5023766;28;20202;-81
2021/11/11 01:38:11;;;;;;;32.75;19.60;;;5.30;99.90;;;;;;5023225;28;20417;-80
2021/11/11 01:40:39;;;;;;;30.08;18.60;;;5.20;99.90;;;;;;5022587;28;20235;-81
2021/11/11 01:43:07;;;;;;;31.02;20.20;;;5.20;99.90;;;;;;5016681;28;20287;-81
2021/11/11 01:45:41;;;;;;;25.33;17.20;;;5.20;99.90;;;;;;5005660;28;20210;-82
2021/11/11 01:48:11;;;;;;;37.70;20.38;;;5.30;99.90;;;;;;5021664;28;20492;-82
2021/11/11 01:50:40;;;;;;;32.20;18.95;;;5.20;99.90;;;;;;5023562;28;20547;-80
2021/11/11 01:53:10;;;;;;;27.23;18.27;;;5.20;99.90;;;;;;5021434;28;20424;-81
2021/11/11 01:55:39;;;;;;;25.95;15.48;;;5.10;99.90;;;;;;5021653;28;20202;-80
2021/11/11 01:58:07;;;;;;;37.25;23.70;;;5.10;99.90;;;;;;5005018;28;20250;-81
2021/11/11 02:00:42;;;;;;;53.90;28.60;;;5.10;99.90;;;;;;5023029;28;20230;-81
2021/11/11 02:03:11;;;;;;;35.60;22.70;;;5.20;99.90;;;;;;5023229;28;20366;-82
2021/11/11 02:05:38;;;;;;;36.65;20.90;;;5.20;99.90;;;;;;5023795;28;20421;-81
2021/11/11 02:08:06;;;;;;;30.40;18.48;;;5.20;99.90;;;;;;5017125;28;20246;-81
2021/11/11 02:10:34;;;;;;;32.13;16.70;;;5.20;99.90;;;;;;5006807;28;20424;-83
2021/11/11 02:13:07;;;;;;;36.92;20.55;;;5.20;99.90;;;;;;5023975;28;20263;-84
2021/11/11 02:15:34;;;;;;;37.90;19.52;;;5.20;99.90;;;;;;5024545;28;20216;-83
2021/11/11 02:18:05;;;;;;;31.20;19.52;;;5.20;99.90;;;;;;5024246;28;20205;-82
2021/11/11 02:20:36;;;;;;;28.02;17.17;;;5.10;99.90;;;;;;5024053;28;20265;-83
2021/11/11 02:23:07;;;;;;;29.80;18.55;;;5.20;99.90;;;;;;5025118;28;20245;-83
2021/11/11 02:25:34;;;;;;;28.10;19.40;;;5.20;99.90;;;;;;5024603;28;20202;-82
2021/11/11 02:28:07;;;;;;;28.55;20.45;;;5.20;99.90;;;;;;5024591;28;20229;-83
2021/11/11 02:30:36;;;;;;;24.35;16.80;;;5.20;99.90;;;;;;5007065;28;20207;-83
2021/11/11 02:33:15;;;;;;;31.98;19.95;;;5.10;99.90;;;;;;5024156;28;20209;-82
2021/11/11 02:35:43;;;;;;;26.75;17.67;;;5.10;99.90;;;;;;5006652;28;20206;-83
2021/11/11 02:38:11;;;;;;;33.85;20.23;;;5.00;99.90;;;;;;5023608;28;20303;-85
2021/11/11 02:40:41;;;;;;;35.35;18.85;;;5.00;99.90;;;;;;5023782;28;20566;-84
2021/11/11 02:43:10;;;;;;;25.88;18.73;;;5.00;99.90;;;;;;5023745;28;20203;-83
2021/11/11 02:45:41;;;;;;;27.27;19.13;;;5.00;99.90;;;;;;5024085;28;20504;-83
2021/11/11 02:48:13;;;;;;;33.33;20.83;;;5.00;99.90;;;;;;5024479;28;20260;-84
2021/11/11 02:50:41;;;;;;;32.20;20.25;;;4.90;99.90;;;;;;5023314;28;20205;-83
2021/11/11 02:53:09;;;;;;;35.60;19.33;;;4.80;99.90;;;;;;5016334;28;20473;-83
2021/11/11 02:55:36;;;;;;;30.02;18.85;;;4.80;99.90;;;;;;5023571;28;20206;-84
2021/11/11 02:58:05;;;;;;;27.77;20.50;;;4.70;99.90;;;;;;5023344;28;20214;-84
2021/11/11 03:00:53;;;;;;;33.72;18.10;;;4.70;99.90;;;;;;5022038;28;20234;-84
2021/11/11 03:03:21;;;;;;;35.30;20.48;;;4.60;99.90;;;;;;5015653;28;20199;-84
2021/11/11 03:05:48;;;;;;;27.83;17.65;;;4.70;99.90;;;;;;5006381;28;20252;-83
2021/11/11 03:08:15;;;;;;;28.98;19.17;;;4.80;99.90;;;;;;5006141;28;20249;-82
2021/11/11 03:10:44;;;;;;;33.80;19.50;;;4.70;99.90;;;;;;5023536;28;20207;-82
2021/11/11 03:13:15;;;;;;;39.50;22.55;;;4.70;99.90;;;;;;5023131;28;20265;-84
2021/11/11 03:15:43;;;;;;;35.15;20.92;;;4.60;99.90;;;;;;5023675;28;20273;-84
2021/11/11 03:18:11;;;;;;;34.60;20.08;;;4.60;99.90;;;;;;5023510;28;20202;-83
2021/11/11 03:20:39;;;;;;;36.42;21.08;;;4.70;99.90;;;;;;5022698;28;20226;-84
2021/11/11 03:23:06;;;;;;;34.33;22.08;;;4.70;99.90;;;;;;5005877;28;20202;-84
2021/11/11 03:25:35;;;;;;;29.83;18.60;;;4.70;99.90;;;;;;5015751;28;20199;-84
2021/11/11 03:28:04;;;;;;;30.80;18.65;;;4.60;99.90;;;;;;4999403;28;20198;-83
2021/11/11 03:30:31;;;;;;;36.20;21.10;;;4.50;99.90;;;;;;5022749;28;20206;-84
2021/11/11 03:32:59;;;;;;;42.63;22.77;;;4.60;99.90;;;;;;5026138;28;20210;-83
2021/11/11 03:35:27;;;;;;;34.85;21.58;;;4.60;99.90;;;;;;5005509;28;20260;-83
2021/11/11 03:38:03;;;;;;;28.35;18.63;;;4.40;99.90;;;;;;5015975;28;20217;-81
2021/11/11 03:40:33;;;;;;;34.63;21.15;;;4.30;99.90;;;;;;5022913;28;20565;-81
2021/11/11 03:43:01;;;;;;;35.42;19.90;;;4.30;99.90;;;;;;5020115;28;20244;-81
2021/11/11 03:45:30;;;;;;;30.52;20.52;;;4.40;99.90;;;;;;5022468;28;20218;-82
2021/11/11 03:47:59;;;;;;;35.95;21.10;;;4.30;99.90;;;;;;5017723;28;20206;-81
2021/11/11 03:50:26;;;;;;;30.98;20.20;;;4.30;99.90;;;;;;5019028;28;20435;-82
2021/11/11 03:52:55;;;;;;;33.03;20.90;;;4.20;99.90;;;;;;5005575;28;20531;-83
2021/11/11 03:55:25;;;;;;;28.38;20.50;;;4.30;99.90;;;;;;5013736;28;20459;-82
2021/11/11 03:57:56;;;;;;;31.30;19.23;;;4.20;99.90;;;;;;4997545;28;20548;-82
2021/11/11 04:00:24;;;;;;;27.98;18.70;;;4.20;99.90;;;;;;5014535;28;20260;-82
2021/11/11 04:02:52;;;;;;;33.38;19.73;;;4.30;99.90;;;;;;5005673;28;20205;-83
2021/11/11 04:05:19;;;;;;;35.17;22.02;;;4.30;99.90;;;;;;5013535;28;20229;-82
2021/11/11 04:07:47;;;;;;;28.73;22.20;;;4.40;99.90;;;;;;5004962;28;20229;-83
2021/11/11 04:10:15;;;;;;;36.45;22.00;;;4.50;99.90;;;;;;5021438;28;20214;-83
2021/11/11 04:12:57;;;;;;;30.77;21.13;;;4.50;99.90;;;;;;5017969;28;20202;-82
2021/11/11 04:15:24;;;;;;;38.08;20.50;;;4.50;99.90;;;;;;5021039;28;20225;-83
2021/11/11 04:17:52;;;;;;;30.95;20.15;;;4.50;99.90;;;;;;5020828;28;20568;-84
2021/11/11 04:20:19;;;;;;;32.22;22.67;;;4.50;99.90;;;;;;5005938;28;20229;-82
2021/11/11 04:22:46;;;;;;;28.73;19.20;;;4.50;99.90;;;;;;5014635;28;20203;-82
2021/11/11 04:25:21;;;;;;;33.03;20.50;;;4.50;99.90;;;;;;5021127;28;20202;-81
2021/11/11 04:28:16;;;;;;;31.88;21.20;;;4.50;99.90;;;;;;5005063;28;20205;-83
2021/11/11 04:30:38;;;;;;;33.08;19.30;;;4.40;99.90;;;;;;5021800;28;20202;-84
2021/11/11 04:33:08;;;;;;;41.72;22.15;;;4.40;99.90;;;;;;5022308;28;20435;-83
2021/11/11 04:35:35;;;;;;;31.75;20.67;;;4.30;99.90;;;;;;5003770;28;20214;-83
2021/11/11 04:39:19;;;;;;;31.40;22.05;;;4.30;99.90;;;;;;5004608;28;20222;-82
2021/11/11 05:05:21;;;;;;;35.67;21.20;;;3.80;99.90;;;;;;5022406;28;20270;-83
2021/11/11 05:07:49;;;;;;;37.72;22.70;;;3.60;99.90;;;;;;5022626;28;20236;-82
2021/11/11 05:10:18;;;;;;;31.80;21.90;;;3.70;99.90;;;;;;5021514;28;20201;-82
2021/11/11 05:12:46;;;;;;;39.20;22.17;;;3.80;99.90;;;;;;5020663;28;20205;-83
2021/11/11 05:15:14;;;;;;;35.10;23.45;;;3.80;99.90;;;;;;5021481;28;20203;-82
2021/11/11 05:17:45;;;;;;;37.97;22.58;;;3.90;99.90;;;;;;5004915;28;20391;-82
2021/11/11 05:20:14;;;;;;;38.05;23.85;;;4.00;99.90;;;;;;5024327;28;20233;-82
2021/11/11 05:22:42;;;;;;;36.15;23.15;;;4.00;99.90;;;;;;5007835;28;20209;-82
2021/11/11 05:25:12;;;;;;;34.40;21.77;;;4.00;99.90;;;;;;5006237;28;20594;-82
2021/11/11 05:27:41;;;;;;;33.78;21.90;;;4.00;99.90;;;;;;5024060;28;20212;-83
2021/11/11 05:30:10;;;;;;;32.88;21.58;;;4.00;99.90;;;;;;5007545;28;20302;-83
2021/11/11 05:32:37;;;;;;;39.50;23.40;;;3.90;99.90;;;;;;5007939;28;20209;-82
2021/11/11 05:35:07;;;;;;;41.40;22.75;;;3.80;99.90;;;;;;5023158;28;20212;-83
2021/11/11 05:37:35;;;;;;;39.50;23.90;;;3.70;99.90;;;;;;5022389;28;20209;-83
2021/11/11 05:40:04;;;;;;;31.88;22.92;;;3.60;99.90;;;;;;5023153;28;20224;-83
2021/11/11 05:42:32;;;;;;;30.88;22.00;;;3.20;99.90;;;;;;5006969;28;20244;-83
2021/11/11 05:44:59;;;;;;;35.22;23.50;;;3.20;99.90;;;;;;5007048;28;20209;-82
2021/11/11 05:47:27;;;;;;;37.05;25.77;;;3.10;99.90;;;;;;5019939;28;20201;-82
2021/11/11 05:49:54;;;;;;;36.63;26.35;;;3.20;99.90;;;;;;5024099;28;20259;-83
2021/11/11 05:52:22;;;;;;;33.88;22.13;;;3.30;99.90;;;;;;5023954;28;20263;-83
2021/11/11 05:54:49;;;;;;;36.85;24.27;;;3.30;99.90;;;;;;5024358;28;20227;-82
2021/11/11 05:57:17;;;;;;;32.50;22.88;;;3.50;99.90;;;;;;5004137;28;20272;-82
2021/11/11 05:59:44;;;;;;;35.92;23.00;;;3.40;99.90;;;;;;5022788;28;20201;-82
2021/11/11 06:02:13;;;;;;;38.42;26.00;;;3.30;99.90;;;;;;4998834;28;20212;-84
2021/11/11 06:04:42;;;;;;;38.00;24.70;;;3.40;99.90;;;;;;5024131;28;20391;-84
2021/11/11 06:07:11;;;;;;;37.70;24.08;;;3.40;99.90;;;;;;5021071;28;20382;-84
2021/11/11 06:09:38;;;;;;;42.03;25.70;;;3.40;99.90;;;;;;5023775;28;20243;-83
2021/11/11 06:12:07;;;;;;;37.55;24.35;;;3.50;99.90;;;;;;5023752;28;20196;-82
2021/11/11 06:14:34;;;;;;;37.45;25.45;;;3.50;99.90;;;;;;5023367;28;20196;-83
2021/11/11 06:17:06;;;;;;;35.45;24.70;;;3.50;99.90;;;;;;5006638;28;20207;-83
2021/11/11 06:19:35;;;;;;;46.05;27.17;;;3.50;99.90;;;;;;5023498;28;20409;-83
2021/11/11 06:22:04;;;;;;;35.75;25.35;;;3.50;99.90;;;;;;5023300;28;20201;-83
2021/11/11 06:24:32;;;;;;;39.00;24.17;;;3.50;99.90;;;;;;5015608;28;20201;-83
2021/11/11 06:27:00;;;;;;;49.30;26.27;;;3.50;99.90;;;;;;5006428;28;20202;-82
2021/11/11 06:29:28;;;;;;;46.38;26.92;;;3.50;99.90;;;;;;5022172;28;20205;-83
2021/11/11 06:31:58;;;;;;;35.55;24.48;;;3.60;99.90;;;;;;5022293;28;20495;-83
2021/11/11 06:34:46;;;;;;;37.03;23.83;;;3.70;99.90;;;;;;5008961;28;20225;-83
2021/11/11 06:37:14;;;;;;;39.55;24.40;;;3.90;99.90;;;;;;5019296;28;20248;-83
2021/11/11 06:39:41;;;;;;;36.97;24.83;;;4.00;99.90;;;;;;5006189;28;20211;-84
2021/11/11 06:42:09;;;;;;;41.22;25.00;;;4.00;99.90;;;;;;5006484;28;20204;-83
2021/11/11 06:44:41;;;;;;;40.65;25.73;;;4.00;99.90;;;;;;5006507;28;20201;-84
2021/11/11 06:47:09;;;;;;;42.42;27.15;;;3.80;99.90;;;;;;5005980;28;20263;-84
2021/11/11 06:49:36;;;;;;;43.00;25.92;;;3.70;99.90;;;;;;5019446;28;20235;-84
2021/11/11 06:52:05;;;;;;;39.30;26.27;;;3.90;99.90;;;;;;5006120;28;20247;-84
2021/11/11 06:54:33;;;;;;;43.35;26.02;;;4.10;99.90;;;;;;5023813;28;20214;-85
2021/11/11 06:57:00;;;;;;;33.67;24.88;;;4.20;99.90;;;;;;5023819;28;20220;-84
2021/11/11 06:59:29;;;;;;;38.67;24.20;;;4.40;99.90;;;;;;5023050;28;20219;-84
2021/11/11 07:01:56;;;;;;;37.53;26.15;;;4.50;99.90;;;;;;5023837;28;20278;-84
2021/11/11 07:04:26;;;;;;;35.90;23.27;;;4.70;99.90;;;;;;5023481;28;20204;-84
2021/11/11 07:06:53;;;;;;;41.50;25.70;;;4.80;99.90;;;;;;5023235;28;20252;-84
2021/11/11 07:09:21;;;;;;;41.58;29.33;;;4.90;99.90;;;;;;5005385;28;20226;-84
2021/11/11 07:11:48;;;;;;;41.17;25.90;;;4.80;99.90;;;;;;5018880;28;20218;-84
2021/11/11 07:14:17;;;;;;;44.00;26.30;;;4.50;99.90;;;;;;5006000;28;20384;-83
2021/11/11 07:16:45;;;;;;;40.42;26.50;;;4.50;99.90;;;;;;5023009;28;20202;-83
2021/11/11 07:19:13;;;;;;;44.22;26.67;;;4.80;99.90;;;;;;5023106;28;20506;-83
2021/11/11 07:21:40;;;;;;;43.80;27.23;;;5.40;99.90;;;;;;5023082;28;20293;-84
2021/11/11 07:24:08;;;;;;;39.13;22.33;;;6.30;99.90;;;;;;5005909;28;20227;-84
2021/11/11 07:26:35;;;;;;;34.78;23.00;;;7.40;99.90;;;;;;5022866;28;20224;-83
2021/11/11 07:29:03;;;;;;;34.35;22.00;;;8.20;99.90;;;;;;5022428;28;20201;-83
2021/11/11 07:31:30;;;;;;;32.30;23.92;;;9.00;99.90;;;;;;5022569;28;20205;-85
2021/11/11 07:33:59;;;;;;;29.40;21.42;;;9.70;99.90;;;;;;5018019;28;20277;-85
2021/11/11 07:36:26;;;;;;;32.10;21.45;;;9.20;99.90;;;;;;5010342;28;20209;-85
2021/11/11 07:38:54;;;;;;;30.10;21.17;;;9.90;99.90;;;;;;5012817;28;20565;-84
2021/11/11 07:41:21;;;;;;;32.35;22.13;;;10.30;99.90;;;;;;5017093;28;20223;-84
2021/11/11 07:43:50;;;;;;;26.55;20.65;;;11.00;99.90;;;;;;5016744;28;20204;-84
2021/11/11 07:46:18;;;;;;;39.10;23.00;;;10.70;99.90;;;;;;5017140;28;20205;-84
2021/11/11 07:48:45;;;;;;;33.67;22.85;;;10.80;99.90;;;;;;5015757;28;20452;-85
2021/11/11 07:51:12;;;;;;;41.10;21.98;;;10.40;99.90;;;;;;4996309;28;20599;-82
2021/11/11 07:53:40;;;;;;;33.97;24.33;;;10.00;99.90;;;;;;5011842;28;20420;-82
2021/11/11 07:56:07;;;;;;;33.38;22.55;;;9.90;99.90;;;;;;5018002;28;20201;-83
2021/11/11 07:58:34;;;;;;;34.35;22.67;;;9.70;99.90;;;;;;5015039;28;20212;-84
2021/11/11 08:01:02;;;;;;;30.02;21.88;;;9.60;99.90;;;;;;5019435;28;20446;-83
2021/11/11 08:03:30;;;;;;;35.28;23.95;;;9.50;99.90;;;;;;5018345;28;20514;-83
2021/11/11 08:05:57;;;;;;;38.42;25.02;;;9.30;99.90;;;;;;5017605;28;20423;-83
2021/11/11 08:08:24;;;;;;;40.25;26.90;;;9.20;99.90;;;;;;5014671;28;20201;-83
2021/11/11 08:10:51;;;;;;;42.10;26.42;;;9.10;99.90;;;;;;5013545;28;20201;-84
2021/11/11 08:13:18;;;;;;;37.80;26.90;;;8.90;99.90;;;;;;5017508;28;20328;-84
2021/11/11 08:15:45;;;;;;;32.78;24.27;;;8.90;99.90;;;;;;5018508;28;20420;-84
2021/11/11 08:18:13;;;;;;;44.60;25.92;;;8.80;99.90;;;;;;5016152;28;20205;-83
2021/11/11 08:20:41;;;;;;;33.03;24.92;;;8.80;99.90;;;;;;5017620;28;20223;-84
2021/11/11 08:23:08;;;;;;;38.10;25.23;;;9.00;99.90;;;;;;5015215;28;20215;-84
2021/11/11 08:25:35;;;;;;;32.42;23.00;;;9.50;99.90;;;;;;5015640;28;20258;-84
2021/11/11 08:28:02;;;;;;;35.13;23.40;;;10.10;99.90;;;;;;5013273;28;20193;-84
2021/11/11 08:30:31;;;;;;;40.05;23.70;;;11.00;99.90;;;;;;5011945;28;20210;-84
2021/11/11 08:32:59;;;;;;;43.42;27.08;;;12.00;99.90;;;;;;5014359;28;20244;-84
2021/11/11 08:35:27;;;;;;;29.30;20.95;;;12.40;99.90;;;;;;5010017;28;20501;-84
2021/11/11 08:37:54;;;;;;;33.88;24.73;;;12.30;99.90;;;;;;4999749;28;20212;-84
2021/11/11 08:40:23;;;;;;;39.17;29.75;;;12.90;99.90;;;;;;5015520;28;20262;-84
2021/11/11 08:42:53;;;;;;;33.10;24.55;;;13.70;99.90;;;;;;4999090;28;20533;-84
2021/11/11 08:45:23;;;;;;;29.58;22.60;;;14.20;99.90;;;;;;5010885;28;20273;-84
2021/11/11 08:47:51;;;;;;;27.05;21.95;;;14.70;99.90;;;;;;4995982;28;20313;-83
2021/11/11 08:50:19;;;;;;;29.35;21.15;;;14.80;99.90;;;;;;5012328;28;20620;-84
2021/11/11 08:52:49;;;;;;;29.10;20.92;;;14.80;99.90;;;;;;5021905;28;20226;-83
2021/11/11 08:55:20;;;;;;;26.58;20.70;;;14.40;99.90;;;;;;5017086;28;20514;-85
2021/11/11 08:57:49;;;;;;;26.42;19.65;;;13.50;99.90;;;;;;5003841;28;20208;-83
2021/11/11 09:00:20;;;;;;;25.85;18.33;;;12.80;99.90;;;;;;5003802;28;20260;-84
2021/11/11 09:02:51;;;;;;;23.65;18.90;;;12.10;99.90;;;;;;5014406;28;20192;-82
2021/11/11 09:05:19;;;;;;;26.73;19.83;;;11.50;99.90;;;;;;5018289;28;20215;-83
2021/11/11 09:07:47;;;;;;;24.63;18.33;;;10.90;99.90;;;;;;5018518;28;20254;-84
2021/11/11 09:10:20;;;;;;;26.38;16.52;;;10.70;99.90;;;;;;5019196;28;20199;-83
2021/11/11 09:12:49;;;;;;;29.77;18.98;;;10.50;99.90;;;;;;5016359;28;20245;-84
2021/11/11 09:15:22;;;;;;;27.13;20.42;;;10.10;99.90;;;;;;5022747;28;20202;-84
2021/11/11 09:17:50;;;;;;;28.70;18.45;;;10.00;99.90;;;;;;5013450;28;20435;-84
2021/11/11 09:20:19;;;;;;;23.85;19.27;;;10.00;99.90;;;;;;4989154;28;20241;-83
2021/11/11 09:22:48;;;;;;;27.27;19.20;;;9.90;99.90;;;;;;5021225;28;20281;-82
2021/11/11 09:25:16;;;;;;;21.35;16.55;;;10.00;99.90;;;;;;5014388;28;20213;-84
2021/11/11 09:27:45;;;;;;;24.33;17.55;;;10.00;99.90;;;;;;5021288;28;20201;-83
2021/11/11 09:30:18;;;;;;;23.70;18.00;;;9.90;99.90;;;;;;5021551;28;20197;-83
2021/11/11 09:32:46;;;;;;;24.98;18.95;;;9.80;99.90;;;;;;5013097;28;20202;-84
2021/11/11 09:35:13;;;;;;;21.85;17.02;;;9.70;99.90;;;;;;5021682;28;20209;-85
2021/11/11 09:37:41;;;;;;;23.98;19.23;;;9.70;99.90;;;;;;5021486;28;20216;-84
2021/11/11 09:40:12;;;;;;;25.50;18.60;;;9.80;99.90;;;;;;5016645;28;20250;-85
2021/11/11 09:42:44;;;;;;;22.42;18.20;;;9.70;99.90;;;;;;5021037;28;20294;-84
2021/11/11 09:45:15;;;;;;;30.35;20.67;;;9.90;99.90;;;;;;5018473;28;20487;-84
2021/11/11 09:47:47;;;;;;;25.83;19.38;;;9.90;99.90;;;;;;5018149;28;20226;-85
2021/11/11 09:50:15;;;;;;;24.85;18.58;;;9.80;99.90;;;;;;5016437;28;20216;-84
2021/11/11 09:52:45;;;;;;;26.63;21.02;;;9.90;99.90;;;;;;5002977;28;20216;-84
2021/11/11 10:00:47;;;;;;;25.35;19.27;;;10.00;99.90;;;;;;5012724;28;20198;-83
2021/11/11 10:03:16;;;;;;;30.83;20.98;;;10.20;99.90;;;;;;5000712;28;20196;-84
2021/11/11 10:05:44;;;;;;;27.67;19.55;;;10.50;99.90;;;;;;5014193;28;20203;-82
2021/11/11 10:08:31;;;;;;;30.92;20.55;;;10.60;99.90;;;;;;5015556;28;20198;-86
2021/11/11 10:10:58;;;;;;;32.42;22.95;;;10.40;99.90;;;;;;5019182;28;20210;-86
2021/11/11 10:13:27;;;;;;;24.92;19.45;;;10.70;99.90;;;;;;5003931;28;20210;-88
2021/11/11 10:16:13;;;;;;;22.20;19.75;;;10.70;99.90;;;;;;5019452;28;20207;-85
2021/11/11 10:18:53;;;;;;;26.75;19.70;;;10.40;99.90;;;;;;5021323;28;20216;-84
2021/11/11 10:21:30;;;;;;;24.77;17.98;;;10.20;99.90;;;;;;5014578;28;20338;-84
2021/11/11 10:24:12;;;;;;;26.70;19.42;;;10.20;99.90;;;;;;5011074;28;20434;-86
2021/11/11 10:26:44;;;;;;;31.20;19.95;;;10.20;99.90;;;;;;5019147;28;20197;-85
2021/11/11 10:29:47;;;;;;;28.15;19.70;;;10.50;99.90;;;;;;5020507;28;20206;-85
2021/11/11 10:32:17;;;;;;;31.20;19.27;;;10.40;99.90;;;;;;5008187;28;20504;-84
2021/11/11 10:34:49;;;;;;;22.45;15.63;;;10.30;99.90;;;;;;5019967;28;20202;-84
2021/11/11 10:37:17;;;;;;;26.40;18.92;;;10.40;99.90;;;;;;5005377;28;20360;-84
2021/11/11 10:40:16;;;;;;;27.15;20.90;;;10.50;99.90;;;;;;4994610;28;20250;-85
2021/11/11 10:42:46;;;;;;;23.63;17.52;;;10.60;99.90;;;;;;5014353;28;20296;-83
2021/11/11 10:45:20;;;;;;;27.00;19.73;;;10.50;99.90;;;;;;5020337;28;20294;-83
2021/11/11 10:47:50;;;;;;;25.42;18.15;;;10.60;99.90;;;;;;5013920;28;20248;-84
2021/11/11 10:50:22;;;;;;;25.52;18.92;;;10.60;99.90;;;;;;4999991;28;20236;-83
2021/11/11 10:52:53;;;;;;;29.75;20.88;;;10.50;99.90;;;;;;5019999;28;20241;-85
2021/11/11 10:55:33;;;;;;;29.92;20.17;;;10.40;99.90;;;;;;4999919;28;20203;-85
2021/11/11 10:58:07;;;;;;;32.65;20.85;;;10.40;99.90;;;;;;5016941;28;20204;-83
2021/11/11 11:01:01;;;;;;;31.15;21.02;;;10.40;99.90;;;;;;5013926;28;20469;-85
2021/11/11 11:03:35;;;;;;;31.15;21.10;;;10.50;99.90;;;;;;5004742;28;20275;-84
2021/11/11 11:06:08;;;;;;;28.25;20.33;;;10.50;99.90;;;;;;5022532;28;20213;-85
2021/11/11 11:08:39;;;;;;;26.85;19.92;;;10.40;99.90;;;;;;5022143;28;20399;-86
2021/11/11 11:11:08;;;;;;;24.80;18.45;;;10.50;99.90;;;;;;5005092;28;20206;-84
2021/11/11 11:13:42;;;;;;;26.45;18.77;;;10.40;99.90;;;;;;5022261;28;20213;-86
2021/11/11 11:16:12;;;;;;;26.25;20.42;;;10.50;99.90;;;;;;5022099;28;20463;-87
2021/11/11 11:18:54;;;;;;;25.10;19.65;;;10.40;99.90;;;;;;5004509;28;20213;-85
2021/11/11 11:21:36;;;;;;;26.02;19.77;;;10.40;99.90;;;;;;5016971;28;20205;-85
2021/11/11 11:24:11;;;;;;;24.40;18.85;;;10.40;99.90;;;;;;5008699;28;20262;-86
2021/11/11 11:26:50;;;;;;;26.02;19.55;;;10.50;99.90;;;;;;5022060;28;20205;-84
2021/11/11 11:29:56;;;;;;;27.50;21.23;;;10.50;99.90;;;;;;5013446;28;20493;-84
2021/11/11 11:34:48;;;;;;;25.25;19.73;;;10.50;99.90;;;;;;5016723;28;20420;-84
2021/11/11 11:37:27;;;;;;;26.58;20.17;;;10.60;99.90;;;;;;5003751;28;20212;-84
2021/11/11 11:39:59;;;;;;;30.92;21.35;;;10.80;99.90;;;;;;5020065;28;20556;-85
2021/11/11 11:42:30;;;;;;;23.10;18.48;;;10.60;99.90;;;;;;5021961;28;20520;-84
2021/11/11 11:45:01;;;;;;;29.33;21.25;;;10.50;99.90;;;;;;5015375;28;20200;-83
2021/11/11 11:47:39;;;;;;;29.60;19.50;;;10.70;99.90;;;;;;5021443;28;20250;-83
2021/11/11 11:50:13;;;;;;;30.77;22.42;;;10.70;99.90;;;;;;5020762;28;20244;-85
2021/11/11 11:52:47;;;;;;;31.85;19.42;;;10.70;99.90;;;;;;5016592;28;20205;-86
2021/11/11 11:55:23;;;;;;;27.40;19.75;;;10.70;99.90;;;;;;5017689;28;20265;-85
2021/11/11 11:58:06;;;;;;;29.13;20.52;;;10.50;99.90;;;;;;5015697;28;20214;-85
2021/11/11 12:09:20;;;;;;;25.40;18.88;;;10.20;99.90;;;;;;5021145;28;20216;-84
2021/11/11 12:15:16;;;;;;;26.00;18.83;;;10.20;99.90;;;;;;5021082;28;20304;-84
2021/11/11 12:29:12;;;;;;;24.00;18.52;;;10.90;99.90;;;;;;5025739;28;20206;-85
2021/11/11 12:40:01;;;;;;;28.42;19.05;;;11.00;99.90;;;;;;5022547;28;20202;-86
2021/11/11 12:42:43;;;;;;;25.65;18.15;;;11.10;99.90;;;;;;5004294;28;20527;-86
2021/11/11 12:45:25;;;;;;;24.75;19.17;;;11.30;99.90;;;;;;5019707;28;20218;-85
2021/11/11 12:48:11;;;;;;;23.58;18.30;;;11.30;99.90;;;;;;5006560;28;20205;-85
2021/11/11 12:50:44;;;;;;;24.58;17.85;;;11.50;99.90;;;;;;5025000;28;20212;-85
2021/11/11 12:53:11;;;;;;;26.05;20.30;;;11.20;99.90;;;;;;5018069;28;20214;-86
2021/11/11 12:56:01;;;;;;;29.52;20.02;;;11.40;99.90;;;;;;5005259;28;20214;-85
2021/11/11 12:58:36;;;;;;;28.23;17.92;;;11.40;99.90;;;;;;4996827;28;20208;-86
2021/11/11 13:01:20;;;;;;;26.10;20.83;;;11.20;99.90;;;;;;5023513;28;20207;-85
2021/11/11 13:04:03;;;;;;;24.58;18.23;;;11.10;99.90;;;;;;5001909;28;20432;-84
2021/11/11 13:06:55;;;;;;;21.05;17.05;;;11.10;99.90;;;;;;5017498;28;20203;-85
2021/11/11 13:09:35;;;;;;;27.92;19.27;;;11.00;99.90;;;;;;5019043;28;20221;-85
2021/11/11 13:12:04;;;;;;;29.63;20.40;;;10.90;99.90;;;;;;4999940;28;20213;-85
2021/11/11 13:14:33;;;;;;;22.75;18.85;;;10.80;99.90;;;;;;5015398;28;20201;-84
2021/11/11 13:17:00;;;;;;;27.90;20.00;;;10.70;99.90;;;;;;5010744;28;20211;-85
2021/11/11 13:19:37;;;;;;;26.35;20.52;;;10.60;99.90;;;;;;5015690;28;20208;-84
2021/11/11 15:44:57;;;;;;;35.67;24.63;;;8.70;99.90;;;;;;5021729;28;20209;-85
2021/11/11 16:22:32;;;;;;;48.05;29.52;;;7.60;99.90;;;;;;5015752;28;20417;-85
2021/11/11 16:25:08;;;;;;;58.05;35.72;;;7.60;99.90;;;;;;5020424;28;20208;-83
2021/11/11 16:27:37;;;;;;;45.50;31.40;;;7.50;99.90;;;;;;4999912;28;20254;-84
2021/11/11 16:30:17;;;;;;;55.70;34.72;;;7.50;99.90;;;;;;5011564;28;20204;-84
2021/11/11 16:32:45;;;;;;;53.97;34.70;;;7.30;99.90;;;;;;5016269;28;20500;-84
2021/11/11 16:35:15;;;;;;;50.75;31.13;;;7.20;99.90;;;;;;5015741;28;20212;-83
2021/11/11 16:37:44;;;;;;;51.05;34.05;;;6.80;99.90;;;;;;5021335;28;20207;-84
2021/11/11 16:40:14;;;;;;;53.88;33.28;;;6.60;99.90;;;;;;5020580;28;20414;-84
2021/11/11 16:42:41;;;;;;;47.58;30.98;;;6.50;99.90;;;;;;5003258;28;20344;-86
2021/11/11 16:45:15;;;;;;;43.85;29.85;;;6.50;99.90;;;;;;5021230;28;20371;-84
2021/11/11 16:47:44;;;;;;;39.90;27.13;;;6.60;99.90;;;;;;5020558;28;20204;-84
2021/11/11 16:50:16;;;;;;;41.25;26.25;;;6.70;99.90;;;;;;5003816;28;20201;-86
2021/11/11 16:52:44;;;;;;;45.30;28.48;;;6.60;99.90;;;;;;5021913;28;20219;-83